createdAt,value
2018-09-03T00:00:26.179Z,68.20
2018-09-03T00:02:57.503Z,68.40
2018-09-03T00:05:28.475Z,68.60
2018-09-03T00:07:59.205Z,68.70
2018-09-03T00:10:29.814Z,68.60
2018-09-03T00:13:07.020Z,68.70
2018-09-03T00:15:38.085Z,68.80
2018-09-03T00:18:09.366Z,68.90
2018-09-03T00:20:39.974Z,68.90
2018-09-03T00:23:10.655Z,68.90
2018-09-03T00:25:42.103Z,68.80
2018-09-03T00:28:12.682Z,68.70
2018-09-03T00:30:43.261Z,68.60
2018-09-03T00:33:20.099Z,68.60
2018-09-03T00:35:56.349Z,68.30
2018-09-03T00:38:31.837Z,68.10
2018-09-03T00:41:14.274Z,68.10
2018-09-03T00:43:50.171Z,68.20
2018-09-03T00:46:25.858Z,68.10
2018-09-03T00:48:56.719Z,68.00
2018-09-03T00:51:27.761Z,68.20
2018-09-03T00:54:06.339Z,68.30
2018-09-03T00:56:36.832Z,68.30
2018-09-03T00:59:07.356Z,68.10
2018-09-03T01:01:37.881Z,68.10
2018-09-03T01:04:08.416Z,68.50
2018-09-03T01:06:38.900Z,68.80
2018-09-03T01:09:09.943Z,68.90
2018-09-03T01:11:40.538Z,68.80
2018-09-03T01:14:11.128Z,68.60
2018-09-03T01:16:45.783Z,68.60
2018-09-03T01:19:16.267Z,68.50
2018-09-03T01:21:46.827Z,68.60
2018-09-03T01:24:24.361Z,68.30
2018-09-03T01:26:54.901Z,68.10
2018-09-03T01:29:25.460Z,68.10
2018-09-03T01:31:57.200Z,68.90
2018-09-03T01:34:28.003Z,67.80
2018-09-03T01:36:58.505Z,68.10
2018-09-03T01:39:29.351Z,67.90
2018-09-03T01:41:59.858Z,67.80
2018-09-03T01:44:30.383Z,68.00
2018-09-03T01:47:01.042Z,68.10
2018-09-03T01:49:31.680Z,68.30
2018-09-03T01:52:02.393Z,68.40
2018-09-03T01:54:37.887Z,68.50
2018-09-03T01:57:08.358Z,68.60
2018-09-03T01:59:38.762Z,68.60
2018-09-03T02:02:09.255Z,68.90
2018-09-03T02:04:39.750Z,68.80
2018-09-03T02:07:11.371Z,68.80
2018-09-03T02:09:44.641Z,68.60
2018-09-03T02:12:15.202Z,68.50
2018-09-03T02:14:49.030Z,68.60
2018-09-03T02:17:19.646Z,68.40
2018-09-03T02:19:50.199Z,68.30
2018-09-03T02:22:20.687Z,68.20
2018-09-03T02:24:51.132Z,68.10
2018-09-03T02:27:22.615Z,68.20
2018-09-03T02:29:53.086Z,68.20
2018-09-03T02:32:23.488Z,68.10
2018-09-03T02:34:53.995Z,68.20
2018-09-03T02:37:25.049Z,68.30
2018-09-03T02:39:55.746Z,68.20
2018-09-03T02:42:26.467Z,68.10
2018-09-03T02:44:56.991Z,68.10
2018-09-03T02:47:27.422Z,68.20
2018-09-03T02:49:58.618Z,68.10
2018-09-03T02:52:30.100Z,68.00
2018-09-03T02:55:00.956Z,68.10
2018-09-03T02:57:31.728Z,68.10
2018-09-03T03:00:02.751Z,68.10
2018-09-03T03:02:33.338Z,68.10
2018-09-03T03:05:04.126Z,68.10
2018-09-03T03:07:34.722Z,68.20
2018-09-03T03:10:05.289Z,68.00
2018-09-03T03:12:35.774Z,67.80
2018-09-03T03:15:06.563Z,67.80
2018-09-03T03:17:37.461Z,67.80
2018-09-03T03:20:08.030Z,67.60
2018-09-03T03:22:38.491Z,67.70
2018-09-03T03:25:09.054Z,68.00
2018-09-03T03:27:39.552Z,68.90
2018-09-03T03:30:11.428Z,68.30
2018-09-03T03:32:45.064Z,68.30
2018-09-03T03:35:15.770Z,68.10
2018-09-03T03:37:47.090Z,68.00
2018-09-03T03:40:19.357Z,68.00
2018-09-03T03:42:49.806Z,68.00
2018-09-03T03:45:20.389Z,67.90
2018-09-03T03:47:51.134Z,67.90
2018-09-03T03:50:21.613Z,68.00
2018-09-03T03:52:52.231Z,68.00
2018-09-03T03:55:22.968Z,68.20
2018-09-03T03:57:53.588Z,68.30
2018-09-03T04:00:24.218Z,68.30
2018-09-03T04:02:54.766Z,68.50
2018-09-03T04:05:25.769Z,68.60
2018-09-03T04:08:01.312Z,68.60
2018-09-03T04:10:31.764Z,68.60
2018-09-03T04:13:06.123Z,68.60
2018-09-03T04:15:38.126Z,68.60
2018-09-03T04:18:09.110Z,68.50
2018-09-03T04:20:39.805Z,68.30
2018-09-03T04:23:10.805Z,68.50
2018-09-03T04:25:41.146Z,68.50
2018-09-03T04:28:12.116Z,68.50
2018-09-03T04:30:43.506Z,68.50
2018-09-03T04:33:13.983Z,68.30
2018-09-03T04:35:45.396Z,68.40
2018-09-03T04:38:15.868Z,68.50
2018-09-03T04:40:46.330Z,68.60
2018-09-03T04:43:16.866Z,68.80
2018-09-03T04:45:47.386Z,68.80
2018-09-03T04:48:17.940Z,68.60
2018-09-03T04:50:48.450Z,68.90
2018-09-03T04:53:18.876Z,69.00
2018-09-03T04:55:49.299Z,69.00
2018-09-03T04:58:20.309Z,68.90
2018-09-03T05:00:50.835Z,68.70
2018-09-03T05:03:21.295Z,68.70
2018-09-03T05:05:51.789Z,68.70
2018-09-03T05:08:22.109Z,68.70
2018-09-03T05:10:52.588Z,68.50
2018-09-03T05:13:22.966Z,68.50
2018-09-03T05:15:54.247Z,68.50
2018-09-03T05:18:25.023Z,68.70
2018-09-03T05:20:55.602Z,68.80
2018-09-03T05:23:26.386Z,68.70
2018-09-03T05:25:56.900Z,68.70
2018-09-03T05:28:27.536Z,68.80
2018-09-03T05:30:58.350Z,68.70
2018-09-03T05:33:28.804Z,68.90
2018-09-03T05:35:59.228Z,68.70
2018-09-03T05:38:29.659Z,68.60
2018-09-03T05:41:02.369Z,68.50
2018-09-03T05:43:33.046Z,68.40
2018-09-03T05:46:03.725Z,68.50
2018-09-03T05:48:34.058Z,68.40
2018-09-03T05:51:04.548Z,68.30
2018-09-03T05:53:34.873Z,68.40
2018-09-03T05:56:05.250Z,68.50
2018-09-03T05:58:35.573Z,68.50
2018-09-03T06:01:06.032Z,68.60
2018-09-03T06:03:36.361Z,68.60
2018-09-03T06:06:06.741Z,68.50
2018-09-03T06:08:37.114Z,68.20
2018-09-03T06:11:08.123Z,68.10
2018-09-03T06:13:38.422Z,68.10
2018-09-03T06:16:09.354Z,67.90
2018-09-03T06:18:39.638Z,68.00
2018-09-03T06:21:10.357Z,68.10
2018-09-03T06:23:40.653Z,68.10
2018-09-03T06:26:11.374Z,68.20
2018-09-03T06:28:41.728Z,68.10
2018-09-03T06:31:12.181Z,68.00
2018-09-03T06:33:42.502Z,68.00
2018-09-03T06:36:12.838Z,68.10
2018-09-03T06:38:43.343Z,68.10
2018-09-03T06:41:13.974Z,68.50
2018-09-03T06:43:44.270Z,68.70
2018-09-03T06:46:14.630Z,68.90
2018-09-03T06:48:44.958Z,68.80
2018-09-03T06:51:15.314Z,68.90
2018-09-03T06:53:46.077Z,69.00
2018-09-03T06:56:16.458Z,68.50
2018-09-03T06:58:46.760Z,68.10
2018-09-03T07:01:17.121Z,67.90
2018-09-03T07:03:47.430Z,67.70
2018-09-03T07:06:17.788Z,68.10
2018-09-03T07:08:48.197Z,67.90
2018-09-03T07:11:18.751Z,66.80
2018-09-03T07:13:49.086Z,66.70
2018-09-03T07:16:19.480Z,66.60
2018-09-03T07:18:49.881Z,66.70
2018-09-03T07:21:20.195Z,66.80
2018-09-03T07:23:50.502Z,66.50
2018-09-03T07:26:20.908Z,66.20
2018-09-03T07:28:51.209Z,65.80
2018-09-03T07:31:21.786Z,65.70
2018-09-03T07:33:52.317Z,65.80
2018-09-03T07:36:22.819Z,65.70
2018-09-03T07:38:53.185Z,65.50
2018-09-03T07:41:23.540Z,65.70
2018-09-03T07:43:54.182Z,65.80
2018-09-03T07:46:24.479Z,66.60
2018-09-03T07:48:55.274Z,66.30
2018-09-03T07:51:25.627Z,66.00
2018-09-03T07:53:55.922Z,65.40
2018-09-03T07:56:26.189Z,65.10
2018-09-03T07:58:56.415Z,64.90
2018-09-03T08:01:26.697Z,64.30
2018-09-03T08:03:57.084Z,63.60
2018-09-03T08:06:27.375Z,63.20
2018-09-03T08:08:57.931Z,62.70
2018-09-03T08:11:28.188Z,63.40
2018-09-03T08:13:58.614Z,63.10
2018-09-03T08:16:28.958Z,63.20
2018-09-03T08:18:59.237Z,63.50
2018-09-03T08:21:29.530Z,63.40
2018-09-03T08:23:59.959Z,63.40
2018-09-03T08:26:30.297Z,63.60
2018-09-03T08:29:00.622Z,63.70
2018-09-03T08:31:31.028Z,63.40
2018-09-03T08:34:01.279Z,63.90
2018-09-03T08:36:31.678Z,64.20
2018-09-03T08:39:02.000Z,63.90
2018-09-03T08:41:32.553Z,64.30
2018-09-03T08:44:02.975Z,64.30
2018-09-03T08:46:33.342Z,64.40
2018-09-03T08:49:03.654Z,64.60
2018-09-03T08:51:34.063Z,64.90
2018-09-03T08:54:04.414Z,64.60
2018-09-03T08:56:34.833Z,64.80
2018-09-03T08:59:05.310Z,64.80
2018-09-03T09:01:35.671Z,64.50
2018-09-03T09:04:06.181Z,64.70
2018-09-03T09:06:36.612Z,65.00
2018-09-03T09:09:08.565Z,65.40
2018-09-03T09:11:40.080Z,65.30
2018-09-03T09:14:10.429Z,65.30
2018-09-03T09:16:40.921Z,65.00
2018-09-03T09:19:11.303Z,64.70
2018-09-03T09:21:41.697Z,64.60
2018-09-03T09:24:12.264Z,64.10
2018-09-03T09:26:42.610Z,63.30
2018-09-03T09:29:12.903Z,62.20
2018-09-03T09:31:43.263Z,61.20
2018-09-03T09:34:13.627Z,61.00
2018-09-03T09:36:44.062Z,61.00
2018-09-03T09:39:14.844Z,61.20
2018-09-03T09:41:45.289Z,61.00
2018-09-03T09:44:15.648Z,61.30
2018-09-03T09:46:46.127Z,61.00
2018-09-03T09:49:16.591Z,61.80
2018-09-03T09:51:46.927Z,60.90
2018-09-03T09:54:17.321Z,61.00
2018-09-03T09:56:47.632Z,60.70
2018-09-03T09:59:17.979Z,59.90
2018-09-03T10:01:48.327Z,59.70
2018-09-03T10:04:18.672Z,59.60
2018-09-03T10:06:49.039Z,59.60
2018-09-03T10:09:19.359Z,59.10
2018-09-03T10:11:49.650Z,58.90
2018-09-03T10:14:20.014Z,58.90
2018-09-03T10:16:50.310Z,58.40
2018-09-03T10:19:20.659Z,57.70
2018-09-03T10:21:50.994Z,58.60
2018-09-03T10:24:21.957Z,58.90
2018-09-03T10:26:52.696Z,58.00
2018-09-03T10:29:23.098Z,58.30
2018-09-03T10:31:56.636Z,57.30
2018-09-03T10:34:29.164Z,57.40
2018-09-03T10:37:01.575Z,58.00
2018-09-03T10:39:33.479Z,57.30
2018-09-03T10:42:06.406Z,57.40
2018-09-03T10:44:39.002Z,56.00
2018-09-03T10:47:12.503Z,56.20
2018-09-03T10:49:46.096Z,56.20
2018-09-03T10:52:20.971Z,55.90
2018-09-03T10:54:57.715Z,55.60
2018-09-03T10:57:30.037Z,54.40
2018-09-03T11:00:02.307Z,53.80
2018-09-03T11:02:34.606Z,52.50
2018-09-03T11:05:06.306Z,52.00
2018-09-03T11:07:39.064Z,52.20
2018-09-03T11:10:11.768Z,51.80
2018-09-03T11:12:49.582Z,51.90
2018-09-03T11:15:30.326Z,52.30
2018-09-03T11:18:03.262Z,51.70
2018-09-03T11:20:34.402Z,51.70
2018-09-03T11:23:05.957Z,52.10
2018-09-03T11:25:38.602Z,51.50
2018-09-03T11:28:12.144Z,51.30
2018-09-03T11:30:44.825Z,50.30
2018-09-03T11:33:16.755Z,49.90
2018-09-03T11:35:49.007Z,50.30
2018-09-03T11:38:21.043Z,50.00
2018-09-03T11:40:53.838Z,50.00
2018-09-03T11:43:25.378Z,49.60
2018-09-03T11:46:01.459Z,49.60
2018-09-03T11:48:33.919Z,50.00
2018-09-03T11:51:09.771Z,50.30
2018-09-03T11:53:43.360Z,50.00
2018-09-03T11:56:15.504Z,49.60
2018-09-03T11:58:47.357Z,50.40
2018-09-03T12:01:18.490Z,49.30
2018-09-03T12:03:49.063Z,49.30
2018-09-03T12:06:20.180Z,49.00
2018-09-03T12:09:01.612Z,49.20
2018-09-03T12:11:34.229Z,48.50
2018-09-03T12:14:16.965Z,48.10
2018-09-03T12:17:06.980Z,47.10
2018-09-03T12:19:41.524Z,47.20
2018-09-03T12:22:15.459Z,47.90
2018-09-03T12:24:50.710Z,47.50
2018-09-03T12:27:22.613Z,47.40
2018-09-03T12:30:06.960Z,47.50
2018-09-03T12:32:54.477Z,47.50
2018-09-03T12:35:36.080Z,46.10
2018-09-03T12:41:10.591Z,45.90
2018-09-03T12:43:52.161Z,45.90
2018-09-03T12:46:27.782Z,45.40
2018-09-03T12:49:02.476Z,45.50
2018-09-03T12:51:35.159Z,42.70
2018-09-03T12:54:07.117Z,39.70
2018-09-03T12:56:37.974Z,37.20
2018-09-03T12:59:09.488Z,35.50
2018-09-03T13:01:40.979Z,33.60
2018-09-03T13:04:13.721Z,33.50
2018-09-03T13:06:44.746Z,35.80
2018-09-03T13:09:15.161Z,36.30
2018-09-03T13:11:45.561Z,37.80
2018-09-03T13:14:15.958Z,39.70
2018-09-03T13:16:46.406Z,41.00
2018-09-03T13:19:17.025Z,41.70
2018-09-03T13:21:47.359Z,42.80
2018-09-03T13:24:17.690Z,43.40
2018-09-03T13:26:48.185Z,43.00
2018-09-03T13:29:18.580Z,41.70
2018-09-03T13:31:48.967Z,39.80
2018-09-03T13:34:19.679Z,39.20
2018-09-03T13:36:50.206Z,37.50
2018-09-03T13:39:20.670Z,37.70
2018-09-03T13:41:51.012Z,37.40
2018-09-03T13:44:21.394Z,35.50
2018-09-03T13:46:51.753Z,34.50
2018-09-03T13:49:22.068Z,35.10
2018-09-03T13:51:52.476Z,36.30
2018-09-03T13:54:23.077Z,37.70
2018-09-03T13:56:53.328Z,39.00
2018-09-03T13:59:25.246Z,39.30
2018-09-03T14:01:58.561Z,41.40
2018-09-03T14:04:28.887Z,42.20
2018-09-03T14:06:59.148Z,42.20
2018-09-03T14:09:29.541Z,42.50
2018-09-03T14:11:59.891Z,41.20
2018-09-03T14:14:34.489Z,39.80
2018-09-03T14:17:04.779Z,39.40
2018-09-03T14:19:35.215Z,39.00
2018-09-03T14:22:05.511Z,37.60
2018-09-03T14:24:35.819Z,37.40
2018-09-03T14:27:09.149Z,37.10
2018-09-03T14:29:41.035Z,35.70
2018-09-03T14:32:11.393Z,33.80
2018-09-03T14:34:46.193Z,31.70
2018-09-03T14:37:16.651Z,31.40
2018-09-03T14:39:47.036Z,30.00
2018-09-03T14:42:20.604Z,29.50
2018-09-03T14:44:51.661Z,30.80
2018-09-03T14:47:22.968Z,30.90
2018-09-03T14:49:54.447Z,31.60
2018-09-03T14:52:24.803Z,32.30
2018-09-03T14:54:55.437Z,33.30
2018-09-03T14:57:26.502Z,33.20
2018-09-03T14:59:58.057Z,32.60
2018-09-03T15:02:28.572Z,32.70
2018-09-03T15:04:59.236Z,33.60
2018-09-03T15:07:30.312Z,34.10
2018-09-03T15:10:01.742Z,34.50
2018-09-03T15:12:43.957Z,35.00
2018-09-03T15:15:15.036Z,35.00
2018-09-03T15:17:45.379Z,34.90
2018-09-03T15:20:15.695Z,35.40
2018-09-03T15:22:48.579Z,35.20
2018-09-03T15:25:20.067Z,34.70
2018-09-03T15:27:50.472Z,34.70
2018-09-03T15:30:20.973Z,35.30
2018-09-03T15:32:51.347Z,35.00
2018-09-03T15:35:21.999Z,34.80
2018-09-03T15:37:53.170Z,34.50
2018-09-03T15:40:32.628Z,34.80
2018-09-03T15:43:03.190Z,35.30
2018-09-03T15:45:33.477Z,36.70
2018-09-03T15:48:03.926Z,37.50
2018-09-03T15:50:34.258Z,38.80
2018-09-03T15:53:04.641Z,39.90
2018-09-03T15:55:35.011Z,41.30
2018-09-03T15:58:06.458Z,43.10
2018-09-03T16:00:37.025Z,44.90
2018-09-03T16:03:07.507Z,46.20
2018-09-03T16:05:37.801Z,47.20
2018-09-03T16:08:08.166Z,48.10
2018-09-03T16:10:38.534Z,49.80
2018-09-03T16:14:11.794Z,50.70
2018-09-03T16:16:42.203Z,51.80
2018-09-03T16:19:12.949Z,52.30
2018-09-03T16:21:43.414Z,52.50
2018-09-03T16:24:14.084Z,53.00
2018-09-03T16:26:44.454Z,53.20
2018-09-03T16:29:14.935Z,52.80
2018-09-03T16:31:45.390Z,52.80
2018-09-03T16:34:15.866Z,52.40
2018-09-03T16:36:46.281Z,53.50
2018-09-03T16:39:16.760Z,53.30
2018-09-03T16:41:47.748Z,54.20
2018-09-03T16:44:18.129Z,55.00
2018-09-03T16:46:48.466Z,55.60
2018-09-03T16:49:18.802Z,55.80
2018-09-03T16:51:50.500Z,56.50
2018-09-03T16:54:21.260Z,56.90
2018-09-03T16:56:52.464Z,57.30
2018-09-03T16:59:23.352Z,58.20
2018-09-03T17:01:55.194Z,59.00
2018-09-03T17:04:37.888Z,59.90
2018-09-03T17:07:11.313Z,60.70
2018-09-03T17:09:57.529Z,60.90
2018-09-03T17:12:47.768Z,61.20
2018-09-03T17:15:19.740Z,61.10
2018-09-03T17:17:51.508Z,60.90
2018-09-03T17:20:22.329Z,60.70
2018-09-03T17:22:54.207Z,60.70
2018-09-03T17:25:27.173Z,61.10
2018-09-03T17:27:59.924Z,62.10
2018-09-03T17:30:31.974Z,62.30
2018-09-03T17:33:05.806Z,62.50
2018-09-03T17:35:37.147Z,62.80
2018-09-03T17:38:08.744Z,62.90
2018-09-03T17:40:40.996Z,62.90
2018-09-03T17:43:13.634Z,62.50
2018-09-03T17:45:56.257Z,62.40
2018-09-03T17:48:35.821Z,62.60
2018-09-03T17:51:10.210Z,62.80
2018-09-03T17:53:41.319Z,62.90
2018-09-03T17:56:26.497Z,63.00
2018-09-03T17:59:04.772Z,63.30
2018-09-03T18:01:44.311Z,63.60
2018-09-03T18:04:21.368Z,63.60
2018-09-03T18:06:52.413Z,63.50
2018-09-03T18:09:24.058Z,63.50
2018-09-03T18:11:57.302Z,63.90
2018-09-03T18:14:31.163Z,64.70
2018-09-03T18:17:06.236Z,65.30
2018-09-03T18:19:37.327Z,65.50
2018-09-03T18:22:11.753Z,65.50
2018-09-03T18:24:44.007Z,65.60
2018-09-03T18:27:15.343Z,65.70
2018-09-03T18:29:47.217Z,65.70
2018-09-03T18:32:25.747Z,65.70
2018-09-03T18:38:25.151Z,65.40
2018-09-03T18:40:58.197Z,65.20
2018-09-03T18:43:29.784Z,65.30
2018-09-03T18:46:00.755Z,65.30
2018-09-03T18:48:31.998Z,65.30
2018-09-03T18:51:02.506Z,65.30
2018-09-03T18:53:32.958Z,65.10
2018-09-03T18:56:16.561Z,64.90
2018-09-03T18:58:48.470Z,65.00
2018-09-03T19:01:19.587Z,65.20
2018-09-03T19:03:50.106Z,65.40
2018-09-03T19:06:29.728Z,65.60
2018-09-03T19:09:00.437Z,65.60
2018-09-03T19:11:35.089Z,65.60
2018-09-03T19:14:06.595Z,65.80
2018-09-03T19:16:41.961Z,65.70
2018-09-03T19:19:14.712Z,65.80
2018-09-03T19:21:45.323Z,66.00
2018-09-03T19:24:15.661Z,65.90
2018-09-03T19:26:46.074Z,65.80
2018-09-03T19:29:16.547Z,66.10
2018-09-03T19:31:46.871Z,66.20
2018-09-03T19:34:17.308Z,66.10
2018-09-03T19:36:47.682Z,66.10
2018-09-03T19:39:18.132Z,66.30
2018-09-03T19:41:48.469Z,66.30
2018-09-03T19:44:18.858Z,66.30
2018-09-03T19:46:55.288Z,66.80
2018-09-03T19:49:25.741Z,67.20
2018-09-03T19:51:56.499Z,67.40
2018-09-03T19:54:27.306Z,67.50
2018-09-03T19:56:58.204Z,67.30
2018-09-03T19:59:29.262Z,67.10
2018-09-03T20:02:05.733Z,67.20
2018-09-03T20:04:39.394Z,67.10
2018-09-03T20:07:11.042Z,67.00
2018-09-03T20:09:45.723Z,66.90
2018-09-03T20:12:17.561Z,66.60
2018-09-03T20:14:49.857Z,66.40
2018-09-03T20:17:22.578Z,66.30
2018-09-03T20:19:55.887Z,66.90
2018-09-03T20:22:28.525Z,65.90
2018-09-03T20:25:01.557Z,65.50
2018-09-03T20:27:35.068Z,65.30
2018-09-03T20:30:06.740Z,65.10
2018-09-03T20:32:37.209Z,65.10
2018-09-03T20:35:08.178Z,64.90
2018-09-03T20:37:38.498Z,65.60
2018-09-03T20:40:12.835Z,65.70
2018-09-03T20:42:45.707Z,65.80
2018-09-03T20:45:17.066Z,65.80
2018-09-03T20:47:47.770Z,65.60
2018-09-03T20:50:19.579Z,65.50
2018-09-03T20:52:50.109Z,65.50
2018-09-03T20:55:21.860Z,65.60
2018-09-03T20:57:53.186Z,66.00
2018-09-03T21:00:25.235Z,66.20
2018-09-03T21:02:55.965Z,66.30
2018-09-03T21:05:26.384Z,66.10
2018-09-03T21:07:58.479Z,66.30
2018-09-03T21:10:29.174Z,66.70
2018-09-03T21:13:02.046Z,67.00
2018-09-03T21:15:34.713Z,67.20
2018-09-03T21:18:38.397Z,67.30
2018-09-03T21:21:12.602Z,67.30
2018-09-03T21:23:45.060Z,67.10
2018-09-03T21:26:17.114Z,66.90
2018-09-03T21:28:48.902Z,66.50
2018-09-03T21:31:19.897Z,66.10
2018-09-03T21:33:51.260Z,66.30
2018-09-03T21:36:23.082Z,66.50
2018-09-03T21:38:55.016Z,66.60
2018-09-03T21:41:28.130Z,67.10
2018-09-03T21:43:59.443Z,67.20
2018-09-03T21:46:32.624Z,66.50
2018-09-03T21:49:03.804Z,66.30
2018-09-03T21:51:35.669Z,65.90
2018-09-03T21:54:09.538Z,66.00
2018-09-03T21:56:40.352Z,66.00
2018-09-03T21:59:11.518Z,66.00
2018-09-03T22:01:44.027Z,65.90
2018-09-03T22:04:14.609Z,65.80
2018-09-03T22:06:45.058Z,65.60
2018-09-03T22:09:15.676Z,65.60
2018-09-03T22:11:46.197Z,65.40
2018-09-03T22:14:16.958Z,65.20
2018-09-03T22:16:47.469Z,65.00
2018-09-03T22:19:18.065Z,64.80
2018-09-03T22:21:49.085Z,64.90
2018-09-03T22:24:20.733Z,64.90
2018-09-03T22:26:51.656Z,65.00
2018-09-03T22:29:23.124Z,65.30
2018-09-03T22:31:54.568Z,65.30
2018-09-03T22:34:25.398Z,65.40
2018-09-03T22:36:57.149Z,65.60
2018-09-03T22:39:27.959Z,65.50
2018-09-03T22:41:58.961Z,65.40
2018-09-03T22:44:29.298Z,65.40
2018-09-03T22:47:02.574Z,65.20
2018-09-03T22:49:32.895Z,65.40
2018-09-03T22:52:03.887Z,65.40
2018-09-03T22:54:36.960Z,65.40
2018-09-03T22:57:08.398Z,65.40
2018-09-03T23:01:14.644Z,65.20
2018-09-03T23:03:45.119Z,64.80
2018-09-03T23:06:16.883Z,64.90
2018-09-03T23:08:48.825Z,65.10
2018-09-03T23:11:22.008Z,65.20
2018-09-03T23:13:57.315Z,65.10
2018-09-03T23:16:28.509Z,65.10
2018-09-03T23:19:00.033Z,65.30
2018-09-03T23:21:32.106Z,66.00
2018-09-03T23:24:02.853Z,65.20
2018-09-03T23:26:33.654Z,64.90
2018-09-03T23:29:04.024Z,64.70
2018-09-03T23:31:34.652Z,64.60
2018-09-03T23:34:05.235Z,64.50
2018-09-03T23:36:35.660Z,65.30
2018-09-03T23:39:06.946Z,64.60
2018-09-03T23:41:37.744Z,64.70
2018-09-03T23:44:08.169Z,64.90
2018-09-03T23:46:38.511Z,64.80
2018-09-03T23:55:17.297Z,64.50
2018-09-03T23:57:51.283Z,64.30
